createdAt,value
2016-04-26T00:00:24.060Z,0
2016-04-26T00:02:26.659Z,0
2016-04-26T00:03:04.942Z,0
2016-04-26T00:03:39.258Z,0
2016-04-26T00:05:10.573Z,0
2016-04-26T00:05:48.908Z,0
2016-04-26T00:06:48.832Z,0
2016-04-26T00:07:48.945Z,0
2016-04-26T00:08:48.884Z,0
2016-04-26T00:10:01.637Z,0
2016-04-26T00:10:48.906Z,0
2016-04-26T00:12:45.879Z,0
2016-04-26T00:12:58.442Z,0
2016-04-26T00:14:11.382Z,0
2016-04-26T00:14:58.479Z,0
2016-04-26T00:16:13.137Z,0
2016-04-26T00:16:58.984Z,0
2016-04-26T00:17:58.518Z,0
2016-04-26T00:18:58.521Z,0
2016-04-26T00:20:13.727Z,0
2016-04-26T00:21:04.823Z,0
2016-04-26T00:22:11.294Z,0
2016-04-26T00:23:11.453Z,0
2016-04-26T00:24:17.816Z,0
2016-04-26T00:26:27.461Z,0
2016-04-26T00:27:27.371Z,0
2016-04-26T00:28:11.233Z,0
2016-04-26T00:29:24.016Z,0
2016-04-26T00:30:11.488Z,0
2016-04-26T00:31:11.460Z,0
2016-04-26T00:32:11.822Z,0
2016-04-26T00:33:11.371Z,0
2016-04-26T00:34:11.358Z,0
2016-04-26T00:35:24.079Z,0
2016-04-26T00:36:17.629Z,0
2016-04-26T00:37:24.148Z,0
2016-04-26T00:38:11.416Z,0
2016-04-26T00:39:11.418Z,0
2016-04-26T00:40:30.674Z,0
2016-04-26T00:41:11.455Z,0
2016-04-26T00:42:11.567Z,0
2016-04-26T00:43:17.742Z,0
2016-04-26T00:44:12.900Z,0
2016-04-26T00:45:24.247Z,0
2016-04-26T00:46:12.250Z,0
2016-04-26T00:47:24.252Z,0
2016-04-26T00:48:11.584Z,0
2016-04-26T00:49:30.744Z,0
2016-04-26T00:50:11.572Z,0
2016-04-26T00:51:11.639Z,0
2016-04-26T00:52:11.594Z,0
2016-04-26T00:53:17.894Z,0
2016-04-26T00:54:13.037Z,0
2016-04-26T00:55:11.633Z,0
2016-04-26T00:56:11.636Z,0
2016-04-26T00:57:24.404Z,0
2016-04-26T00:58:11.688Z,0
2016-04-26T00:59:24.457Z,0
2016-04-26T01:00:13.131Z,0
2016-04-26T01:01:30.587Z,0
2016-04-26T01:02:11.996Z,0
2016-04-26T01:03:11.732Z,0
2016-04-26T01:04:11.767Z,0
2016-04-26T01:05:18.052Z,0
2016-04-26T01:06:11.804Z,0
2016-04-26T01:07:24.557Z,0
2016-04-26T01:08:11.793Z,0
2016-04-26T01:09:31.046Z,0
2016-04-26T01:10:31.048Z,0
2016-04-26T01:11:15.146Z,0
2016-04-26T01:13:11.947Z,0
2016-04-26T01:13:24.509Z,0
2016-04-26T01:14:24.529Z,0
2016-04-26T01:15:24.562Z,0
2016-04-26T01:16:24.924Z,0
2016-04-26T01:17:30.584Z,0
2016-04-26T01:18:25.992Z,0
2016-04-26T01:19:37.326Z,0
2016-04-26T01:20:24.639Z,0
2016-04-26T01:21:24.625Z,0
2016-04-26T01:22:24.674Z,0
2016-04-26T01:23:24.662Z,0
2016-04-26T01:24:30.914Z,0
2016-04-26T01:25:37.451Z,0
2016-04-26T01:26:44.016Z,0
2016-04-26T01:27:24.860Z,0
2016-04-26T01:28:50.381Z,0
2016-04-26T01:29:24.834Z,0
2016-04-26T01:30:24.744Z,0
2016-04-26T01:31:25.855Z,0
2016-04-26T01:32:24.764Z,0
2016-04-26T01:33:24.844Z,0
2016-04-26T01:34:36.772Z,0
2016-04-26T01:35:24.835Z,0
2016-04-26T01:36:37.574Z,0
2016-04-26T01:37:24.855Z,0
2016-04-26T01:38:24.858Z,0
2016-04-26T01:39:24.877Z,0
2016-04-26T01:40:26.286Z,0
2016-04-26T01:41:24.898Z,0
2016-04-26T01:42:25.009Z,0
2016-04-26T01:43:24.935Z,0
2016-04-26T01:44:25.562Z,0
2016-04-26T01:45:37.708Z,0
2016-04-26T01:46:26.426Z,0
2016-04-26T01:47:24.712Z,0
2016-04-26T01:48:25.635Z,0
2016-04-26T01:49:25.012Z,0
2016-04-26T01:50:25.062Z,0
2016-04-26T01:51:25.050Z,0
2016-04-26T01:52:25.052Z,0
2016-04-26T01:53:25.056Z,0
2016-04-26T01:54:25.073Z,0
2016-04-26T01:55:37.845Z,0
2016-04-26T01:56:25.720Z,0
2016-04-26T01:57:25.175Z,0
2016-04-26T01:58:37.869Z,0
2016-04-26T01:59:25.165Z,0
2016-04-26T02:00:50.842Z,0
2016-04-26T02:01:24.967Z,0
2016-04-26T02:02:56.363Z,0
2016-04-26T02:03:25.207Z,0
2016-04-26T02:04:25.210Z,0
2016-04-26T02:05:25.853Z,0
2016-04-26T02:06:25.824Z,0
2016-04-26T02:07:25.266Z,0
2016-04-26T02:08:38.221Z,0
2016-04-26T02:09:25.910Z,0
2016-04-26T02:10:25.320Z,0
2016-04-26T02:11:38.276Z,0
2016-04-26T02:12:25.496Z,0
2016-04-26T02:13:25.343Z,0
2016-04-26T02:14:25.330Z,0
2016-04-26T02:15:25.379Z,0
2016-04-26T02:16:25.523Z,0
2016-04-26T02:17:25.385Z,0
2016-04-26T02:18:25.701Z,0
2016-04-26T02:19:26.062Z,0
2016-04-26T02:20:25.440Z,0
2016-04-26T02:21:44.648Z,0
2016-04-26T02:22:25.320Z,0
2016-04-26T02:23:25.471Z,0
2016-04-26T02:24:25.505Z,0
2016-04-26T02:25:25.492Z,0
2016-04-26T02:26:25.510Z,0
2016-04-26T02:27:25.607Z,0
2016-04-26T02:28:31.657Z,0
2016-04-26T02:29:25.565Z,0
2016-04-26T02:30:25.552Z,0
2016-04-26T02:31:25.679Z,0
2016-04-26T02:32:25.511Z,0
2016-04-26T02:33:31.873Z,0
2016-04-26T02:34:38.328Z,0
2016-04-26T02:35:44.834Z,0
2016-04-26T02:36:25.631Z,0
2016-04-26T02:37:25.665Z,0
2016-04-26T02:38:31.933Z,0
2016-04-26T02:39:25.671Z,0
2016-04-26T02:40:38.439Z,0
2016-04-26T02:41:25.707Z,0
2016-04-26T02:42:51.399Z,0
2016-04-26T02:43:32.024Z,0
2016-04-26T02:44:25.731Z,0
2016-04-26T02:45:38.484Z,0
2016-04-26T02:46:27.205Z,0
2016-04-26T02:47:25.847Z,0
2016-04-26T02:48:38.617Z,0
2016-04-26T02:49:38.541Z,0
2016-04-26T02:50:45.030Z,0
2016-04-26T02:51:25.827Z,0
2016-04-26T02:52:25.893Z,0
2016-04-26T02:53:32.161Z,0
2016-04-26T02:54:25.866Z,0
2016-04-26T02:55:25.855Z,0
2016-04-26T02:56:32.152Z,0
2016-04-26T02:57:25.922Z,0
2016-04-26T02:58:25.924Z,0
2016-04-26T02:59:25.927Z,0
2016-04-26T03:00:32.227Z,0
2016-04-26T03:01:26.714Z,0
2016-04-26T03:02:26.841Z,0
2016-04-26T03:03:26.093Z,0
2016-04-26T03:04:38.722Z,0
2016-04-26T03:05:26.615Z,0
2016-04-26T03:06:25.993Z,0
2016-04-26T03:07:26.104Z,0
2016-04-26T03:08:38.842Z,0
2016-04-26T03:09:26.673Z,0
2016-04-26T03:10:38.815Z,0
2016-04-26T03:11:26.100Z,0
2016-04-26T03:12:26.087Z,0
2016-04-26T03:13:27.528Z,0
2016-04-26T03:14:26.123Z,0
2016-04-26T03:15:26.126Z,0
2016-04-26T03:16:26.222Z,0
2016-04-26T03:17:38.727Z,0
2016-04-26T03:18:33.073Z,0
2016-04-26T03:19:26.170Z,0
2016-04-26T03:20:27.609Z,0
2016-04-26T03:21:26.065Z,4
2016-04-26T03:22:57.508Z,4
2016-04-26T03:23:26.836Z,0
2016-04-26T03:24:57.529Z,4
2016-04-26T03:25:41.389Z,4
2016-04-26T03:26:41.423Z,4
2016-04-26T03:27:47.694Z,4
2016-04-26T03:29:07.103Z,4
2016-04-26T03:29:41.447Z,8
2016-04-26T03:30:41.670Z,8
2016-04-26T03:31:43.470Z,8
2016-04-26T03:32:55.066Z,8
2016-04-26T03:33:40.863Z,8
2016-04-26T03:34:54.306Z,12
2016-04-26T03:35:47.918Z,12
2016-04-26T03:37:44.627Z,20
2016-04-26T03:39:03.911Z,24
2016-04-26T03:39:44.647Z,24
2016-04-26T03:40:44.682Z,32
2016-04-26T03:41:44.810Z,32
2016-04-26T03:42:44.718Z,40
2016-04-26T03:43:44.783Z,44
2016-04-26T03:44:52.442Z,48
2016-04-26T03:45:44.696Z,52
2016-04-26T03:47:03.932Z,68
2016-04-26T03:47:57.481Z,68
2016-04-26T03:49:04.126Z,72
2016-04-26T03:49:44.971Z,84
2016-04-26T03:51:47.555Z,100
2016-04-26T03:52:19.368Z,100
2016-04-26T03:53:19.354Z,100
2016-04-26T03:54:25.826Z,112
2016-04-26T03:55:58.565Z,120
2016-04-26T03:56:36.800Z,136
2016-04-26T03:57:12.147Z,160
2016-04-26T03:58:42.481Z,216
2016-04-26T03:59:11.184Z,232
2016-04-26T04:01:24.063Z,284
2016-04-26T04:02:12.504Z,312
2016-04-26T04:03:30.491Z,340
2016-04-26T04:04:11.211Z,356
2016-04-26T04:06:20.124Z,404
2016-04-26T04:06:51.908Z,416
2016-04-26T04:07:51.895Z,352
2016-04-26T04:08:58.194Z,324
2016-04-26T04:09:53.348Z,356
2016-04-26T04:11:11.163Z,336
2016-04-26T04:11:51.962Z,392
2016-04-26T04:14:07.155Z,532
2016-04-26T04:15:07.267Z,588
2016-04-26T04:16:19.754Z,696
2016-04-26T04:17:07.742Z,740
2016-04-26T04:18:07.212Z,776
2016-04-26T04:19:07.231Z,844
2016-04-26T04:20:20.078Z,900
2016-04-26T04:21:07.252Z,940
2016-04-26T04:23:04.226Z,1020
2016-04-26T04:23:16.789Z,1032
2016-04-26T04:24:16.792Z,1072
2016-04-26T04:26:39.312Z,1152
2016-04-26T04:27:23.190Z,1200
2016-04-26T04:28:23.239Z,1248
2016-04-26T04:29:29.492Z,1300
2016-04-26T04:30:35.229Z,1360
2016-04-26T04:31:35.967Z,1416
2016-04-26T04:32:23.298Z,1464
2016-04-26T04:33:23.378Z,1572
2016-04-26T04:34:36.022Z,1740
2016-04-26T04:35:36.055Z,1808
2016-04-26T04:36:42.511Z,1756
2016-04-26T04:37:42.560Z,1764
2016-04-26T04:39:44.785Z,1764
2016-04-26T04:40:38.569Z,1812
2016-04-26T04:41:51.262Z,1896
2016-04-26T04:42:39.199Z,1964
2016-04-26T04:44:51.160Z,2056
2016-04-26T04:46:45.134Z,2472
2016-04-26T04:47:04.025Z,2624
2016-04-26T04:48:17.059Z,2924
2016-04-26T04:49:23.093Z,2640
2016-04-26T04:50:05.314Z,2620
2016-04-26T04:51:29.551Z,2684
2016-04-26T04:52:16.632Z,2832
2016-04-26T04:53:03.900Z,3016
2016-04-26T04:54:03.919Z,3308
2016-04-26T04:55:16.687Z,3752
2016-04-26T04:56:04.174Z,3660
2016-04-26T04:58:31.977Z,3600
2016-04-26T04:59:16.011Z,3952
2016-04-26T05:00:35.107Z,4500
2016-04-26T05:01:16.281Z,4244
2016-04-26T05:03:50.914Z,4260
2016-04-26T05:04:25.211Z,4324
2016-04-26T05:07:18.939Z,4572
2016-04-26T05:07:40.502Z,4960
2016-04-26T05:08:40.549Z,5688
2016-04-26T05:09:41.210Z,5564
2016-04-26T05:10:53.308Z,5584
2016-04-26T05:11:40.558Z,5716
2016-04-26T05:12:53.313Z,5408
2016-04-26T05:13:40.626Z,4240
2016-04-26T05:15:06.273Z,4648
2016-04-26T05:15:53.368Z,4956
2016-04-26T05:17:12.168Z,6060
2016-04-26T05:18:06.342Z,6840
2016-04-26T05:19:06.346Z,7040
2016-04-26T05:19:40.690Z,7244
2016-04-26T05:21:11.992Z,7716
2016-04-26T05:21:52.823Z,7696
2016-04-26T05:22:40.713Z,7952
2016-04-26T05:23:40.856Z,6736
2016-04-26T05:24:53.534Z,6840
2016-04-26T05:25:47.223Z,7564
2016-04-26T05:27:06.492Z,7204
2016-04-26T05:27:53.604Z,8720
2016-04-26T05:28:40.823Z,5756
2016-04-26T05:30:00.031Z,4864
2016-04-26T05:30:41.453Z,4872
2016-04-26T05:32:38.975Z,5000
2016-04-26T05:33:17.102Z,5008
2016-04-26T05:33:51.589Z,4684
2016-04-26T05:34:52.217Z,5200
2016-04-26T05:35:51.610Z,5872
2016-04-26T05:36:51.613Z,6832
2016-04-26T05:37:51.646Z,7488
2016-04-26T05:39:04.493Z,7092
2016-04-26T05:39:52.340Z,7076
2016-04-26T05:41:48.657Z,7152
2016-04-26T05:42:01.251Z,7172
2016-04-26T05:43:14.004Z,7304
2016-04-26T05:44:14.038Z,7956
2016-04-26T05:45:20.603Z,7008
2016-04-26T05:46:14.074Z,5908
2016-04-26T05:47:01.264Z,5092
2016-04-26T05:48:01.970Z,4336
2016-04-26T05:49:07.739Z,3828
2016-04-26T05:50:14.757Z,3468
2016-04-26T05:51:14.713Z,3276
2016-04-26T05:52:01.403Z,3120
2016-04-26T05:53:02.031Z,3032
2016-04-26T05:54:02.862Z,3116
2016-04-26T05:55:02.411Z,2940
2016-04-26T05:56:04.508Z,2768
2016-04-26T05:57:02.858Z,2592
2016-04-26T05:58:01.881Z,2620
2016-04-26T05:59:01.384Z,2676
2016-04-26T06:00:01.574Z,2624
2016-04-26T06:01:01.389Z,2668
2016-04-26T06:02:02.261Z,2608
2016-04-26T06:03:14.279Z,3024
2016-04-26T06:04:14.297Z,3448
2016-04-26T06:06:24.147Z,4468
2016-04-26T06:08:27.543Z,4664
2016-04-26T06:09:11.421Z,5720
2016-04-26T06:10:30.657Z,6068
2016-04-26T06:11:12.066Z,6204
2016-04-26T06:12:37.147Z,6828
2016-04-26T06:13:18.212Z,6876
2016-04-26T06:15:28.249Z,6716
2016-04-26T06:16:28.127Z,5860
2016-04-26T06:17:28.568Z,6312
2016-04-26T06:18:28.163Z,6444
2016-04-26T06:19:28.260Z,4688
2016-04-26T06:20:28.200Z,3040
2016-04-26T06:21:40.968Z,3544
2016-04-26T06:22:28.427Z,4088
2016-04-26T06:24:25.246Z,5016
2016-04-26T06:25:03.529Z,4584
2016-04-26T06:25:37.888Z,5504
2016-04-26T06:26:37.876Z,5800
2016-04-26T06:27:37.862Z,6628
2016-04-26T06:28:44.162Z,8876
2016-04-26T06:29:50.637Z,9704
2016-04-26T06:30:37.902Z,9956
2016-04-26T06:32:03.548Z,10184
2016-04-26T06:33:13.926Z,11064
2016-04-26T06:33:47.301Z,10516
2016-04-26T06:34:47.178Z,8856
2016-04-26T06:35:53.590Z,7232
2016-04-26T06:36:48.825Z,8260
2016-04-26T06:38:00.205Z,9240
2016-04-26T06:39:00.113Z,9976
2016-04-26T06:39:47.410Z,10284
2016-04-26T06:41:06.603Z,10872
2016-04-26T06:41:48.213Z,9364
2016-04-26T06:43:18.890Z,10268
2016-04-26T06:44:45.064Z,10544
2016-04-26T06:44:57.677Z,9736
2016-04-26T06:47:01.557Z,11164
2016-04-26T06:47:13.963Z,12020
2016-04-26T06:48:14.122Z,14560
2016-04-26T06:49:33.343Z,14660
2016-04-26T06:50:14.158Z,18464
2016-04-26T06:51:33.411Z,30208
2016-04-26T06:52:14.398Z,22208
2016-04-26T06:53:39.901Z,19872
2016-04-26T06:54:20.513Z,16832
2016-04-26T06:55:47.032Z,17408
2016-04-26T06:56:21.034Z,16768
2016-04-26T06:57:18.709Z,14052
2016-04-26T06:58:31.461Z,14248
2016-04-26T06:59:19.354Z,14708
2016-04-26T07:00:37.967Z,12048
2016-04-26T07:01:21.828Z,10928
2016-04-26T07:02:42.487Z,8364
2016-04-26T07:03:24.287Z,7200
2016-04-26T07:05:24.590Z,4168
2016-04-26T07:05:56.577Z,4076
2016-04-26T07:06:37.202Z,4928
2016-04-26T07:07:37.361Z,5672
2016-04-26T07:08:43.504Z,6220
2016-04-26T07:09:43.539Z,6884
2016-04-26T07:10:50.212Z,7592
2016-04-26T07:11:50.012Z,8340
2016-04-26T07:12:56.502Z,9736
2016-04-26T07:13:37.439Z,10848
2016-04-26T07:14:56.570Z,11556
2016-04-26T07:15:50.101Z,11988
2016-04-26T07:16:37.385Z,12160
2016-04-26T07:18:03.031Z,14300
2016-04-26T07:18:38.828Z,14844
2016-04-26T07:20:08.724Z,13304
2016-04-26T07:20:50.177Z,11384
2016-04-26T07:21:37.477Z,10156
2016-04-26T07:22:58.112Z,8188
2016-04-26T07:23:37.518Z,6456
2016-04-26T07:24:40.551Z,7388
2016-04-26T07:25:37.539Z,8080
2016-04-26T07:26:40.588Z,12540
2016-04-26T07:27:38.966Z,11732
2016-04-26T07:28:50.313Z,6528
2016-04-26T07:29:40.643Z,6864
2016-04-26T07:31:40.726Z,5724
2016-04-26T07:32:40.839Z,6360
2016-04-26T07:33:41.857Z,6856
2016-04-26T07:34:40.844Z,11480
2016-04-26T07:35:40.801Z,12244
2016-04-26T07:36:40.864Z,7764
2016-04-26T07:37:41.414Z,6380
2016-04-26T07:38:41.434Z,5908
2016-04-26T07:39:40.842Z,5636
2016-04-26T07:40:53.597Z,6428
2016-04-26T07:41:53.616Z,6252
2016-04-26T07:43:06.416Z,6116
2016-04-26T07:44:00.105Z,6412
2016-04-26T07:45:12.327Z,5788
2016-04-26T07:45:56.126Z,8464
2016-04-26T07:47:15.270Z,6500
2016-04-26T07:47:56.194Z,5964
2016-04-26T07:49:21.588Z,7356
2016-04-26T07:49:56.122Z,7980
2016-04-26T07:51:27.655Z,7648
2016-04-26T07:52:05.908Z,6224
2016-04-26T07:54:08.538Z,5964
2016-04-26T07:54:21.117Z,5808
2016-04-26T07:55:21.151Z,5336
2016-04-26T07:56:21.184Z,5376
2016-04-26T07:57:21.157Z,4768
2016-04-26T07:58:21.191Z,4324
2016-04-26T07:59:33.943Z,4220
2016-04-26T08:00:21.227Z,4692
2016-04-26T08:01:21.339Z,4328
2016-04-26T08:02:21.294Z,3972
2016-04-26T08:03:22.454Z,3800
2016-04-26T08:04:27.675Z,4024
2016-04-26T08:05:21.350Z,4752
2016-04-26T08:06:34.055Z,4128
2016-04-26T08:07:21.339Z,5600
2016-04-26T08:08:21.358Z,7804
2016-04-26T08:09:21.611Z,7876
2016-04-26T08:10:27.754Z,6720
2016-04-26T08:11:21.397Z,6344
2016-04-26T08:12:21.462Z,5296
2016-04-26T08:13:21.622Z,4612
2016-04-26T08:14:34.280Z,3924
2016-04-26T08:15:21.658Z,3832
2016-04-26T08:16:34.363Z,4948
2016-04-26T08:17:21.694Z,5736
2016-04-26T08:18:21.260Z,6732
2016-04-26T08:19:34.263Z,7084
2016-04-26T08:20:21.766Z,6004
2016-04-26T08:22:24.693Z,4712
2016-04-26T08:23:24.789Z,4904
2016-04-26T08:24:24.729Z,6336
2016-04-26T08:25:50.419Z,9016
2016-04-26T08:26:26.203Z,9004
2016-04-26T08:27:56.068Z,6508
2016-04-26T08:28:26.224Z,5948
2016-04-26T08:29:26.217Z,6148
2016-04-26T08:30:24.817Z,6208
2016-04-26T08:31:44.111Z,5188
2016-04-26T08:32:37.859Z,4652
2016-04-26T08:34:19.058Z,4012
2016-04-26T08:34:31.636Z,3720
2016-04-26T08:35:31.804Z,3204
2016-04-26T08:36:31.930Z,3156
2016-04-26T08:37:31.761Z,3428
2016-04-26T08:38:44.497Z,3152
2016-04-26T08:39:31.797Z,3200
2016-04-26T08:40:51.094Z,3276
2016-04-26T08:41:31.884Z,3052
2016-04-26T08:42:31.720Z,3084
2016-04-26T08:43:31.899Z,3904
2016-04-26T08:44:31.924Z,3760
2016-04-26T08:45:38.385Z,3996
2016-04-26T08:46:31.967Z,4352
2016-04-26T08:47:31.971Z,4328
2016-04-26T08:48:38.726Z,5112
2016-04-26T08:49:32.012Z,4876
2016-04-26T08:50:44.767Z,7132
2016-04-26T08:51:38.473Z,6788
2016-04-26T08:52:39.117Z,5476
2016-04-26T08:53:32.074Z,6628
2016-04-26T08:54:32.094Z,8652
2016-04-26T08:55:32.144Z,11672
2016-04-26T08:56:31.975Z,10096
2016-04-26T08:57:35.431Z,11708
2016-04-26T08:58:38.466Z,12916
2016-04-26T08:59:44.922Z,13420
2016-04-26T09:00:39.127Z,12276
2016-04-26T09:01:45.037Z,8632
2016-04-26T09:02:40.320Z,6592
2016-04-26T09:03:32.293Z,6072
2016-04-26T09:04:57.953Z,6776
2016-04-26T09:05:41.844Z,8752
2016-04-26T09:06:41.832Z,7952
2016-04-26T09:07:42.100Z,6516
2016-04-26T09:08:41.868Z,8204
2016-04-26T09:09:41.901Z,9820
2016-04-26T09:10:41.904Z,10240
2016-04-26T09:11:41.939Z,11472
2016-04-26T09:12:48.207Z,13136
2016-04-26T09:13:41.991Z,10604
2016-04-26T09:14:48.228Z,11040
2016-04-26T09:15:41.980Z,8908
2016-04-26T09:16:48.264Z,10056
2016-04-26T09:17:41.892Z,9904
2016-04-26T09:19:02.178Z,9524
2016-04-26T09:19:43.569Z,7352
2016-04-26T09:20:42.088Z,5828
2016-04-26T09:21:45.138Z,7428
2016-04-26T09:23:39.111Z,10892
2016-04-26T09:23:51.705Z,11188
2016-04-26T09:24:51.770Z,12640
2016-04-26T09:25:51.711Z,10132
2016-04-26T09:26:51.776Z,7664
2016-04-26T09:27:51.966Z,6684
2016-04-26T09:29:04.518Z,4876
2016-04-26T09:29:58.115Z,5076
2016-04-26T09:31:11.039Z,7712
2016-04-26T09:32:11.010Z,8440
2016-04-26T09:32:52.338Z,8128
2016-04-26T09:34:50.454Z,5456
2016-04-26T09:35:03.143Z,5764
2016-04-26T09:36:03.179Z,6644
2016-04-26T09:37:03.274Z,9192
2016-04-26T09:38:03.214Z,5324
2016-04-26T09:39:07.623Z,5864
2016-04-26T09:40:09.517Z,9800
2016-04-26T09:41:03.317Z,10132
2016-04-26T09:42:22.506Z,10556
2016-04-26T09:43:03.400Z,11052
2016-04-26T09:44:29.028Z,9096
2016-04-26T09:45:04.733Z,10784
2016-04-26T09:46:34.658Z,15276
2016-04-26T09:47:16.113Z,14724
2016-04-26T09:48:06.506Z,13144
2016-04-26T09:49:18.009Z,13732
2016-04-26T09:50:09.700Z,12416
2016-04-26T09:51:16.187Z,14568
2016-04-26T09:52:03.486Z,14064
2016-04-26T09:53:03.489Z,11584
2016-04-26T09:54:03.523Z,12800
2016-04-26T09:55:16.230Z,12076
2016-04-26T09:56:04.137Z,12776
2016-04-26T09:57:03.390Z,13096
2016-04-26T09:58:16.283Z,11804
2016-04-26T09:59:03.568Z,13756
2016-04-26T10:00:03.586Z,17728
2016-04-26T10:01:04.198Z,16064
2016-04-26T10:02:16.373Z,16704
2016-04-26T10:03:05.079Z,16448
2016-04-26T10:04:06.581Z,14828
2016-04-26T10:05:16.552Z,17568
2016-04-26T10:06:16.446Z,17600
2016-04-26T10:07:22.933Z,19552
2016-04-26T10:08:03.717Z,22688
2016-04-26T10:09:10.017Z,17984
2016-04-26T10:10:10.628Z,19968
2016-04-26T10:11:16.491Z,16160
2016-04-26T10:12:03.806Z,17760
2016-04-26T10:13:23.903Z,15248
2016-04-26T10:14:07.826Z,14100
2016-04-26T10:15:07.798Z,13212
2016-04-26T10:16:07.847Z,13716
2016-04-26T10:17:14.132Z,18688
2016-04-26T10:18:08.853Z,18464
2016-04-26T10:19:21.481Z,15808
2016-04-26T10:20:09.922Z,12524
2016-04-26T10:21:07.970Z,12608
2016-04-26T10:22:10.972Z,11736
2016-04-26T10:23:20.680Z,12860
2016-04-26T10:24:07.964Z,12012
2016-04-26T10:25:16.434Z,11688
2016-04-26T10:26:08.000Z,11524
2016-04-26T10:27:08.050Z,9972
2016-04-26T10:28:14.333Z,12752
2016-04-26T10:29:08.055Z,12548
2016-04-26T10:30:12.448Z,8856
2016-04-26T10:31:20.936Z,9952
2016-04-26T10:32:08.125Z,9124
2016-04-26T10:33:27.316Z,8484
2016-04-26T10:34:14.194Z,7060
2016-04-26T10:35:08.180Z,6864
2016-04-26T10:36:27.401Z,8596
2016-04-26T10:37:20.968Z,9820
2016-04-26T10:38:08.250Z,9672
2016-04-26T10:39:27.457Z,10004
2016-04-26T10:40:14.521Z,11548
2016-04-26T10:41:08.306Z,12288
2016-04-26T10:42:08.339Z,14160
2016-04-26T10:43:08.326Z,14516
2016-04-26T10:44:08.501Z,15808
2016-04-26T10:45:14.614Z,16992
2016-04-26T10:46:14.662Z,16960
2016-04-26T10:47:27.619Z,15252
2016-04-26T10:48:11.481Z,15008
2016-04-26T10:49:37.499Z,16032
2016-04-26T10:50:08.471Z,16448
2016-04-26T10:51:08.536Z,17344
2016-04-26T10:52:10.022Z,18336
2016-04-26T10:53:08.510Z,19168
2016-04-26T10:54:16.559Z,20800
2016-04-26T10:55:08.624Z,21664
2016-04-26T10:56:11.597Z,22336
2016-04-26T10:57:08.661Z,22560
2016-04-26T10:58:21.352Z,21344
2016-04-26T10:59:10.432Z,20992
2016-04-26T11:00:08.669Z,20384
2016-04-26T11:01:27.844Z,19712
2016-04-26T11:02:09.331Z,18688
2016-04-26T11:03:34.334Z,20480
2016-04-26T11:04:10.993Z,20992
2016-04-26T11:05:40.260Z,24128
2016-04-26T11:06:08.780Z,24000
2016-04-26T11:08:23.941Z,22368
2016-04-26T11:09:23.991Z,21344
2016-04-26T11:10:30.321Z,21152
2016-04-26T11:11:36.746Z,21504
2016-04-26T11:12:36.779Z,22016
2016-04-26T11:13:43.361Z,24032
2016-04-26T11:14:24.051Z,22848
2016-04-26T11:15:24.101Z,21344
2016-04-26T11:16:24.712Z,16672
2016-04-26T11:17:24.731Z,15232
2016-04-26T11:18:25.203Z,13324
2016-04-26T11:19:25.033Z,13436
2016-04-26T11:20:43.395Z,17024
2016-04-26T11:21:31.882Z,16320
2016-04-26T11:22:43.431Z,18016
2016-04-26T11:23:49.903Z,18848
2016-04-26T11:24:47.390Z,16352
2016-04-26T11:25:53.878Z,14060
2016-04-26T11:26:53.974Z,11700
2016-04-26T11:27:57.148Z,11516
2016-04-26T11:28:37.980Z,12132
2016-04-26T11:29:37.936Z,10844
2016-04-26T11:30:38.610Z,9412
2016-04-26T11:31:37.956Z,8456
2016-04-26T11:32:37.990Z,9204
2016-04-26T11:33:45.993Z,8832
2016-04-26T11:34:50.574Z,8652
2016-04-26T11:35:39.467Z,8092
2016-04-26T11:36:57.282Z,7904
2016-04-26T11:37:39.612Z,7924
2016-04-26T11:39:47.837Z,7876
2016-04-26T11:40:47.668Z,6852
2016-04-26T11:41:49.265Z,6452
2016-04-26T11:42:54.126Z,6260
2016-04-26T11:43:47.769Z,6056
2016-04-26T11:45:03.303Z,6296
2016-04-26T11:45:47.776Z,7156
2016-04-26T11:47:07.046Z,7540
2016-04-26T11:48:00.874Z,6744
2016-04-26T11:49:14.161Z,5292
2016-04-26T11:49:47.879Z,4824
2016-04-26T11:51:19.431Z,4024
2016-04-26T11:51:48.728Z,4312
2016-04-26T11:53:19.468Z,4296
2016-04-26T11:54:00.828Z,3728
2016-04-26T11:54:48.081Z,3444
2016-04-26T11:56:13.867Z,3688
2016-04-26T11:56:54.430Z,4140
2016-04-26T11:58:19.419Z,5532
2016-04-26T11:59:29.016Z,6440
2016-04-26T12:00:22.549Z,7992
2016-04-26T12:01:03.440Z,9168
2016-04-26T12:02:03.614Z,9700
2016-04-26T12:03:03.586Z,10900
2016-04-26T12:04:04.433Z,11992
2016-04-26T12:05:03.451Z,12324
2016-04-26T12:06:03.500Z,12992
2016-04-26T12:07:03.675Z,13724
2016-04-26T12:08:03.475Z,14424
2016-04-26T12:09:04.930Z,14768
2016-04-26T12:10:09.810Z,14720
2016-04-26T12:11:03.545Z,14756
2016-04-26T12:12:03.580Z,14172
2016-04-26T12:13:09.865Z,13536
2016-04-26T12:14:16.431Z,11668
2016-04-26T12:15:03.618Z,10156
2016-04-26T12:16:24.264Z,9088
2016-04-26T12:17:03.654Z,8760
2016-04-26T12:18:03.690Z,7996
2016-04-26T12:19:03.192Z,7604
2016-04-26T12:20:09.978Z,7416
2016-04-26T12:21:10.012Z,7176
2016-04-26T12:22:03.747Z,6592
2016-04-26T12:23:03.764Z,6256
2016-04-26T12:24:10.067Z,6948
2016-04-26T12:25:16.554Z,8184
2016-04-26T12:26:03.101Z,8812
2016-04-26T12:27:03.978Z,9804
2016-04-26T12:28:03.841Z,11012
2016-04-26T12:29:04.547Z,13696
2016-04-26T12:30:04.550Z,13744
2016-04-26T12:31:04.036Z,12472
2016-04-26T12:32:03.930Z,11860
2016-04-26T12:33:03.948Z,11808
2016-04-26T12:34:05.279Z,12044
2016-04-26T12:35:03.969Z,12120
2016-04-26T12:36:04.596Z,12184
2016-04-26T12:37:16.602Z,12216
2016-04-26T12:38:16.839Z,12204
2016-04-26T12:39:22.639Z,12076
2016-04-26T12:40:04.124Z,11984
2016-04-26T12:41:23.301Z,11584
2016-04-26T12:42:16.866Z,11336
2016-04-26T12:43:04.132Z,11068
2016-04-26T12:44:23.355Z,10808
2016-04-26T12:45:04.809Z,10588
2016-04-26T12:46:04.795Z,10508
2016-04-26T12:47:04.190Z,10444
2016-04-26T12:48:16.945Z,10608
2016-04-26T12:49:17.025Z,10732
2016-04-26T12:50:04.243Z,10928
2016-04-26T12:51:29.953Z,11384
2016-04-26T12:52:04.937Z,11560
2016-04-26T12:53:04.377Z,11896
2016-04-26T12:54:04.317Z,12364
2016-04-26T12:55:04.461Z,12816
2016-04-26T12:56:04.573Z,12800
2016-04-26T12:57:17.125Z,13108
2016-04-26T12:58:04.390Z,13712
2016-04-26T12:59:04.440Z,13964
2016-04-26T13:00:04.459Z,13320
2016-04-26T13:01:04.461Z,14160
2016-04-26T13:02:04.480Z,14668
2016-04-26T13:03:04.498Z,16320
2016-04-26T13:04:10.688Z,14648
2016-04-26T13:05:10.831Z,14236
2016-04-26T13:06:17.305Z,15712
2016-04-26T13:07:23.792Z,16416
2016-04-26T13:08:04.714Z,17184
2016-04-26T13:10:07.830Z,15744
2016-04-26T13:10:20.410Z,15424
2016-04-26T13:11:20.459Z,14664
2016-04-26T13:12:26.712Z,15488
2016-04-26T13:13:20.794Z,15584
2016-04-26T13:14:20.482Z,14492
2016-04-26T13:15:26.798Z,13268
2016-04-26T13:16:20.551Z,14272
2016-04-26T13:17:20.590Z,16320
2016-04-26T13:18:20.576Z,16096
2016-04-26T13:19:26.705Z,15552
2016-04-26T13:20:33.364Z,14892
2016-04-26T13:21:33.366Z,14516
2016-04-26T13:22:39.901Z,15648
2016-04-26T13:23:20.668Z,15808
2016-04-26T13:25:25.253Z,15712
2016-04-26T13:26:25.239Z,15132
2016-04-26T13:27:25.836Z,14084
2016-04-26T13:28:25.260Z,13540
2016-04-26T13:29:25.294Z,13712
2016-04-26T13:30:25.312Z,14144
2016-04-26T13:31:38.065Z,14332
2016-04-26T13:32:31.630Z,14836
2016-04-26T13:33:25.383Z,15052
2016-04-26T13:34:26.791Z,15232
2016-04-26T13:35:51.075Z,16576
2016-04-26T13:36:38.189Z,16608
2016-04-26T13:37:56.769Z,16960
2016-04-26T13:38:31.725Z,17152
2016-04-26T13:40:40.730Z,16800
2016-04-26T13:41:40.733Z,16544
2016-04-26T13:42:47.048Z,16320
2016-04-26T13:43:47.097Z,16736
2016-04-26T13:44:53.569Z,16736
2016-04-26T13:46:00.071Z,16000
2016-04-26T13:46:42.262Z,14680
2016-04-26T13:48:12.171Z,12600
2016-04-26T13:48:56.579Z,11932
2016-04-26T13:49:57.738Z,11140
2016-04-26T13:50:56.226Z,10792
2016-04-26T13:51:56.728Z,9464
2016-04-26T13:53:09.482Z,8284
2016-04-26T13:53:56.171Z,8128
2016-04-26T13:54:56.206Z,8052
2016-04-26T13:55:56.224Z,8404
2016-04-26T13:56:56.820Z,8760
2016-04-26T13:58:08.964Z,9476
2016-04-26T13:58:56.294Z,9984
2016-04-26T14:00:21.984Z,9952
2016-04-26T14:00:56.362Z,9876
2016-04-26T14:02:27.664Z,9388